PWSweather.com
Personal Weather Stations
Station Observations

MakarauRodneyNZ

Lat: -36.52421, Lon: 174.47572

Elevation: 606

Station Type: Davis VP2

http://kaiparaweather.dynu.net/index.php

Latest ConditionsUpdated 8:50:01 AM GMT+12:12 Thursday, Apr 25, 2019
Currently Today's Max Today's Min Today's Average
Temperature 61.7°F16.5°C 61.7°F16.5°C 59.3°F15.2°C 60.1°F15.6°C
Dew Point 58.5°F14.7°C 58.5°F14.7°C 55.7°F13.2°C 57.0°F13.9°C
Winds Calm Calm 12.7 mph -20.4 kmh - - 7.2 mph 11.6 kmh
Wind Gusts 3.5 mph5.6 kmh 17.3 mph27.8 kmh - -
Humidity 89% 92% 86% 90%
Pressure 29.99 in1015.6 mb 29.99 in1015.6 mb 29.96 in1014.6 mb -
Hour Temp Dew Point Humidity Winds Wind Gusts Pressure Precip Precip Rate Daily Precip Total
08:50 AM 61.7°F16.5°C 58.5°F14.7°C 89% Calm Calm 3.5 mph5.6 kmh 29.99 in1015.6 mb - 0.00 in0.0 mm 0.00 in0.0 mm
08:40 AM 61.4°F16.3°C 58.2°F14.6°C 89% 4.6 mph WSW7.4 kmh WSW 9.2 mph14.8 kmh 29.99 in1015.6 mb - 0.00 in0.0 mm 0.00 in0.0 mm
08:30 AM 61.1°F16.2°C 58.2°F14.6°C 90% 5.8 mph WSW9.3 kmh WSW 5.8 mph9.3 kmh 29.98 in1015.2 mb - 0.00 in0.0 mm 0.00 in0.0 mm
08:20 AM 60.6°F15.9°C 57.6°F14.2°C 90% 8.1 mph SW13.0 kmh SW 10.4 mph16.7 kmh 29.98 in1015.2 mb - 0.00 in0.0 mm 0.00 in0.0 mm
08:10 AM 60.2°F15.7°C 57.5°F14.2°C 91% 6.9 mph SW11.1 kmh SW 9.2 mph14.8 kmh 29.99 in1015.6 mb - 0.00 in0.0 mm 0.00 in0.0 mm
08:00 AM 59.9°F15.5°C 57.3°F14.1°C 91% 5.8 mph SW9.3 kmh SW 8.1 mph13.0 kmh 29.98 in1015.2 mb - 0.00 in0.0 mm 0.00 in0.0 mm
07:50 AM 59.7°F15.4°C 57.1°F13.9°C 91% 6.9 mph SW11.1 kmh SW 8.1 mph13.0 kmh 29.98 in1015.2 mb - 0.00 in0.0 mm 0.00 in0.0 mm
07:40 AM 59.4°F15.2°C 56.8°F13.8°C 91% 4.6 mph SW7.4 kmh SW 8.1 mph13.0 kmh 29.98 in1015.2 mb - 0.00 in0.0 mm 0.00 in0.0 mm
07:30 AM 59.3°F15.2°C 56.7°F13.7°C 91% 5.8 mph SW9.3 kmh SW 5.8 mph9.3 kmh 29.98 in1015.2 mb - 0.00 in0.0 mm 0.00 in0.0 mm
07:20 AM 59.5°F15.3°C 56.9°F13.8°C 91% 5.8 mph SW9.3 kmh SW 5.8 mph9.3 kmh 29.97 in1014.9 mb - 0.00 in0.0 mm 0.00 in0.0 mm
07:10 AM 59.7°F15.4°C 57.0°F13.9°C 91% 8.1 mph SW13.0 kmh SW 10.4 mph16.7 kmh 29.97 in1014.9 mb - 0.00 in0.0 mm 0.00 in0.0 mm
07:00 AM 59.5°F15.3°C 57.2°F14.0°C 92% 8.1 mph SW13.0 kmh SW 11.5 mph18.5 kmh 29.97 in1014.9 mb - 0.00 in0.0 mm 0.00 in0.0 mm
06:50 AM 59.5°F15.3°C 57.2°F14.0°C 92% 8.1 mph SW13.0 kmh SW 10.4 mph16.7 kmh 29.96 in1014.6 mb - 0.00 in0.0 mm 0.00 in0.0 mm
06:40 AM 59.4°F15.2°C 57.1°F13.9°C 92% 8.1 mph SW13.0 kmh SW 9.2 mph14.8 kmh 29.96 in1014.6 mb - 0.00 in0.0 mm 0.00 in0.0 mm
06:30 AM 59.4°F15.2°C 57.1°F13.9°C 92% 6.9 mph SW11.1 kmh SW 9.2 mph14.8 kmh 29.96 in1014.6 mb - 0.00 in0.0 mm 0.00 in0.0 mm
06:20 AM 59.6°F15.3°C 57.3°F14.1°C 92% 5.8 mph SW9.3 kmh SW 9.2 mph14.8 kmh 29.96 in1014.6 mb - 0.00 in0.0 mm 0.00 in0.0 mm
06:10 AM 59.8°F15.4°C 57.5°F14.2°C 92% 5.8 mph SW9.3 kmh SW 8.1 mph13.0 kmh 29.96 in1014.6 mb - 0.00 in0.0 mm 0.00 in0.0 mm
06:00 AM 60.0°F15.6°C 57.7°F14.3°C 92% 4.6 mph WSW7.4 kmh WSW 4.6 mph7.4 kmh 29.96 in1014.6 mb - 0.00 in0.0 mm 0.00 in0.0 mm
05:50 AM 60.3°F15.7°C 57.9°F14.4°C 92% 4.6 mph SW7.4 kmh SW 5.8 mph9.3 kmh 29.96 in1014.6 mb - 0.00 in0.0 mm 0.00 in0.0 mm
05:40 AM 60.4°F15.8°C 58.1°F14.5°C 92% 5.8 mph SW9.3 kmh SW 6.9 mph11.1 kmh 29.96 in1014.6 mb - 0.00 in0.0 mm 0.00 in0.0 mm
05:30 AM 60.4°F15.8°C 58.1°F14.5°C 92% 8.1 mph SW13.0 kmh SW 10.4 mph16.7 kmh 29.97 in1014.9 mb - 0.00 in0.0 mm 0.00 in0.0 mm
05:20 AM 60.5°F15.8°C 57.8°F14.3°C 91% 8.1 mph SW13.0 kmh SW 10.4 mph16.7 kmh 29.96 in1014.6 mb - 0.00 in0.0 mm 0.00 in0.0 mm
05:10 AM 60.4°F15.8°C 57.8°F14.3°C 91% 8.1 mph SW13.0 kmh SW 9.2 mph14.8 kmh 29.96 in1014.6 mb - 0.00 in0.0 mm 0.00 in0.0 mm
05:00 AM 60.4°F15.8°C 57.7°F14.3°C 91% 5.8 mph SW9.3 kmh SW 5.8 mph9.3 kmh 29.96 in1014.6 mb - 0.00 in0.0 mm 0.00 in0.0 mm
04:50 AM 60.4°F15.8°C 57.7°F14.3°C 91% 4.6 mph SW7.4 kmh SW 4.6 mph7.4 kmh 29.96 in1014.6 mb - 0.00 in0.0 mm 0.00 in0.0 mm
04:40 AM 60.1°F15.6°C 57.5°F14.2°C 91% 3.5 mph SW5.6 kmh SW 4.6 mph7.4 kmh 29.96 in1014.6 mb - 0.00 in0.0 mm 0.00 in0.0 mm
04:30 AM 60.2°F15.7°C 57.3°F14.1°C 90% 3.5 mph WSW5.6 kmh WSW 4.6 mph7.4 kmh 29.96 in1014.6 mb - 0.00 in0.0 mm 0.00 in0.0 mm
04:20 AM 60.3°F15.7°C 57.4°F14.1°C 90% 4.6 mph SW7.4 kmh SW 8.1 mph13.0 kmh 29.96 in1014.6 mb - 0.00 in0.0 mm 0.00 in0.0 mm
04:10 AM 60.3°F15.7°C 57.4°F14.1°C 90% 4.6 mph SW7.4 kmh SW 5.8 mph9.3 kmh 29.96 in1014.6 mb - 0.00 in0.0 mm 0.00 in0.0 mm
04:00 AM 60.4°F15.8°C 57.5°F14.2°C 90% 4.6 mph WSW7.4 kmh WSW 5.8 mph9.3 kmh 29.96 in1014.6 mb - 0.00 in0.0 mm 0.00 in0.0 mm
03:50 AM 60.7°F15.9°C 57.7°F14.3°C 90% 4.6 mph SW7.4 kmh SW 5.8 mph9.3 kmh 29.97 in1014.9 mb - 0.00 in0.0 mm 0.00 in0.0 mm
03:40 AM 60.6°F15.9°C 57.7°F14.3°C 90% 5.8 mph SW9.3 kmh SW 8.1 mph13.0 kmh 29.97 in1014.9 mb - 0.00 in0.0 mm 0.00 in0.0 mm
03:30 AM 60.4°F15.8°C 57.5°F14.2°C 90% 5.8 mph WSW9.3 kmh WSW 11.5 mph18.5 kmh 29.97 in1014.9 mb - 0.00 in0.0 mm 0.00 in0.0 mm
03:20 AM 60.3°F15.7°C 57.4°F14.1°C 90% 6.9 mph SW11.1 kmh SW 11.5 mph18.5 kmh 29.97 in1014.9 mb - 0.00 in0.0 mm 0.00 in0.0 mm
03:10 AM 60.1°F15.6°C 56.8°F13.8°C 89% 8.1 mph WSW13.0 kmh WSW 9.2 mph14.8 kmh 29.97 in1014.9 mb - 0.00 in0.0 mm 0.00 in0.0 mm
03:00 AM 59.9°F15.5°C 56.6°F13.7°C 89% 6.9 mph SW11.1 kmh SW 10.4 mph16.7 kmh 29.97 in1014.9 mb - 0.00 in0.0 mm 0.00 in0.0 mm
02:50 AM 59.4°F15.2°C 56.1°F13.4°C 89% 10.4 mph SW16.7 kmh SW 11.5 mph18.5 kmh 29.97 in1014.9 mb - 0.00 in0.0 mm 0.00 in0.0 mm
02:40 AM 59.4°F15.2°C 56.2°F13.4°C 89% 10.4 mph SW16.7 kmh SW 12.7 mph20.4 kmh 29.96 in1014.6 mb - 0.00 in0.0 mm 0.00 in0.0 mm
02:30 AM 59.4°F15.2°C 55.8°F13.2°C 88% 10.4 mph SW16.7 kmh SW 11.5 mph18.5 kmh 29.97 in1014.9 mb - 0.00 in0.0 mm 0.00 in0.0 mm
02:20 AM 59.5°F15.3°C 56.3°F13.5°C 89% 6.9 mph WSW11.1 kmh WSW 9.2 mph14.8 kmh 29.97 in1014.9 mb - 0.00 in0.0 mm 0.00 in0.0 mm
02:10 AM 59.6°F15.3°C 56.4°F13.6°C 89% 5.8 mph SW9.3 kmh SW 8.1 mph13.0 kmh 29.97 in1014.9 mb - 0.00 in0.0 mm 0.00 in0.0 mm
02:00 AM 59.9°F15.5°C 56.6°F13.7°C 89% 6.9 mph WSW11.1 kmh WSW 11.5 mph18.5 kmh 29.97 in1014.9 mb - 0.00 in0.0 mm 0.00 in0.0 mm
01:50 AM 60.0°F15.6°C 56.4°F13.6°C 88% 9.2 mph SW14.8 kmh SW 10.4 mph16.7 kmh 29.97 in1014.9 mb - 0.00 in0.0 mm 0.00 in0.0 mm
01:40 AM 60.0°F15.6°C 56.4°F13.6°C 88% 8.1 mph WSW13.0 kmh WSW 9.2 mph14.8 kmh 29.97 in1014.9 mb - 0.00 in0.0 mm 0.00 in0.0 mm
01:30 AM 60.1°F15.6°C 56.5°F13.6°C 88% 10.4 mph SW16.7 kmh SW 12.7 mph20.4 kmh 29.97 in1014.9 mb - 0.00 in0.0 mm 0.00 in0.0 mm
01:20 AM 60.0°F15.6°C 56.1°F13.4°C 87% 10.4 mph SW16.7 kmh SW 12.7 mph20.4 kmh 29.98 in1015.2 mb - 0.00 in0.0 mm 0.00 in0.0 mm
01:10 AM 60.1°F15.6°C 56.2°F13.4°C 87% 10.4 mph SW16.7 kmh SW 13.8 mph22.2 kmh 29.98 in1015.2 mb - 0.00 in0.0 mm 0.00 in0.0 mm
01:00 AM 60.4°F15.8°C 56.2°F13.4°C 86% 12.7 mph SW20.4 kmh SW 17.3 mph27.8 kmh 29.98 in1015.2 mb - 0.00 in0.0 mm 0.00 in0.0 mm
12:50 AM 60.3°F15.7°C 56.1°F13.4°C 86% 12.7 mph WSW20.4 kmh WSW 13.8 mph22.2 kmh 29.98 in1015.2 mb - 0.00 in0.0 mm 0.00 in0.0 mm
12:40 AM 59.9°F15.5°C 55.7°F13.2°C 86% 9.2 mph SW14.8 kmh SW 12.7 mph20.4 kmh 29.98 in1015.2 mb - 0.00 in0.0 mm 0.00 in0.0 mm
12:30 AM 60.1°F15.6°C 56.2°F13.4°C 87% 11.5 mph WSW18.5 kmh WSW 12.7 mph20.4 kmh 29.99 in1015.6 mb - 0.00 in0.0 mm 0.00 in0.0 mm
12:20 AM 59.8°F15.4°C 56.2°F13.4°C 88% 10.4 mph WSW16.7 kmh WSW 15.0 mph24.1 kmh 29.98 in1015.2 mb - 0.00 in0.0 mm 0.00 in0.0 mm
12:10 AM 59.7°F15.4°C 56.2°F13.4°C 88% 9.2 mph SW14.8 kmh SW 13.8 mph22.2 kmh 29.98 in1015.2 mb - 0.00 in0.0 mm 0.00 in0.0 mm
12:00 AM 59.8°F15.4°C 56.2°F13.4°C 88% 9.2 mph WSW14.8 kmh WSW 11.5 mph18.5 kmh 29.98 in1015.2 mb - 0.00 in0.0 mm 0.00 in0.0 mm